createdAt,value
2023-03-19T00:00:37.444Z,19.70
2023-03-19T00:03:04.187Z,27.95
2023-03-19T00:05:31.169Z,27.88
2023-03-19T00:07:57.998Z,22.52
2023-03-19T00:10:24.670Z,22.80
2023-03-19T00:12:51.327Z,24.73
2023-03-19T00:15:18.142Z,26.77
2023-03-19T00:17:44.987Z,24.88
2023-03-19T00:20:12.946Z,25.30
2023-03-19T00:22:39.805Z,24.90
2023-03-19T00:25:07.865Z,23.80
2023-03-19T00:27:34.576Z,24.70
2023-03-19T00:30:01.223Z,26.90
2023-03-19T00:32:27.885Z,22.33
2023-03-19T00:34:54.532Z,27.50
2023-03-19T00:37:21.282Z,25.95
2023-03-19T00:39:47.920Z,25.85
2023-03-19T00:42:14.616Z,26.10
2023-03-19T00:44:41.377Z,26.27
2023-03-19T00:47:08.195Z,26.10
2023-03-19T00:49:34.982Z,24.30
2023-03-19T00:52:01.643Z,27.08
2023-03-19T00:54:28.329Z,25.83
2023-03-19T00:56:55.076Z,22.33
2023-03-19T00:59:22.128Z,25.88
2023-03-19T01:01:48.871Z,25.80
2023-03-19T01:04:15.591Z,25.63
2023-03-19T01:06:42.283Z,27.17
2023-03-19T01:09:09.086Z,30.70
2023-03-19T01:11:35.971Z,24.98
2023-03-19T01:14:02.776Z,22.95
2023-03-19T01:16:29.632Z,23.35
2023-03-19T01:18:56.369Z,25.92
2023-03-19T01:21:23.038Z,33.10
2023-03-19T01:23:49.736Z,23.92
2023-03-19T01:26:16.419Z,29.58
2023-03-19T01:28:43.091Z,25.13
2023-03-19T01:31:10.005Z,22.23
2023-03-19T01:33:36.885Z,27.70
2023-03-19T01:36:04.336Z,23.25
2023-03-19T01:38:31.712Z,24.27
2023-03-19T01:40:58.397Z,24.63
2023-03-19T01:43:27.320Z,25.27
2023-03-19T01:46:25.857Z,23.05
2023-03-19T01:48:59.833Z,28.80
2023-03-19T01:51:34.538Z,23.10
2023-03-19T01:54:05.083Z,22.73
2023-03-19T01:56:34.474Z,23.10
2023-03-19T01:59:05.703Z,24.27
2023-03-19T02:01:35.478Z,20.17
2023-03-19T02:04:03.605Z,21.85
2023-03-19T02:06:31.504Z,24.88
2023-03-19T02:08:58.816Z,23.00
2023-03-19T02:11:26.154Z,22.65
2023-03-19T02:13:53.281Z,19.45
2023-03-19T02:16:20.093Z,22.70
2023-03-19T02:18:47.835Z,24.58
2023-03-19T02:21:18.460Z,21.70
2023-03-19T02:24:09.161Z,22.98
2023-03-19T02:26:36.793Z,24.15
2023-03-19T02:29:03.561Z,24.85
2023-03-19T02:31:30.392Z,22.60
2023-03-19T02:34:27.669Z,20.88
2023-03-19T02:37:19.585Z,24.45
2023-03-19T02:40:08.837Z,25.13
2023-03-19T02:42:35.652Z,23.55
2023-03-19T02:45:02.399Z,19.10
2023-03-19T02:47:29.193Z,24.88
2023-03-19T02:49:55.862Z,29.25
2023-03-19T02:52:22.536Z,28.20
2023-03-19T02:54:49.244Z,30.10
2023-03-19T02:57:16.169Z,29.83
2023-03-19T02:59:42.877Z,26.60
2023-03-19T03:02:10.102Z,22.38
2023-03-19T03:04:36.919Z,24.27
2023-03-19T03:07:04.770Z,23.08
2023-03-19T03:09:31.568Z,27.13
2023-03-19T03:11:58.275Z,23.88
2023-03-19T03:14:25.026Z,26.85
2023-03-19T03:16:51.764Z,24.45
2023-03-19T03:19:18.428Z,22.20
2023-03-19T03:21:45.059Z,22.45
2023-03-19T03:24:11.721Z,24.05
2023-03-19T03:26:38.420Z,21.90
2023-03-19T03:29:08.258Z,22.38
2023-03-19T03:31:35.398Z,26.10
2023-03-19T03:34:02.759Z,21.65
2023-03-19T03:36:29.543Z,22.52
2023-03-19T03:38:56.337Z,24.73
2023-03-19T03:41:23.020Z,27.98
2023-03-19T03:43:49.694Z,19.83
2023-03-19T03:46:16.539Z,22.48
2023-03-19T03:48:43.224Z,23.55
2023-03-19T03:51:09.889Z,26.23
2023-03-19T03:53:36.584Z,20.92
2023-03-19T03:56:03.284Z,22.55
2023-03-19T03:58:29.916Z,23.55
2023-03-19T04:00:56.621Z,23.42
2023-03-19T04:03:23.279Z,23.23
2023-03-19T04:05:50.614Z,27.02
2023-03-19T04:08:17.373Z,25.90
2023-03-19T04:10:44.167Z,27.48
2023-03-19T04:13:12.255Z,25.70
2023-03-19T04:15:39.108Z,25.45
2023-03-19T04:18:05.869Z,25.15
2023-03-19T04:20:32.815Z,24.63
2023-03-19T04:22:59.667Z,23.88
2023-03-19T04:25:26.369Z,30.08
2023-03-19T04:27:53.039Z,24.85
2023-03-19T04:30:19.765Z,26.92
2023-03-19T04:32:46.580Z,21.23
2023-03-19T04:35:13.525Z,25.77
2023-03-19T04:37:40.316Z,20.65
2023-03-19T04:40:07.604Z,31.20
2023-03-19T04:42:34.267Z,26.25
2023-03-19T04:45:00.977Z,28.40
2023-03-19T04:47:27.628Z,25.15
2023-03-19T04:49:54.315Z,27.45
2023-03-19T04:52:20.992Z,24.33
2023-03-19T04:54:47.624Z,23.58
2023-03-19T04:57:14.306Z,23.98
2023-03-19T04:59:40.956Z,25.50
2023-03-19T05:02:07.664Z,22.35
2023-03-19T05:04:34.466Z,24.30
2023-03-19T05:07:01.158Z,24.13
2023-03-19T05:09:27.938Z,33.22
2023-03-19T05:11:54.598Z,25.42
2023-03-19T05:14:21.353Z,26.60
2023-03-19T05:16:48.110Z,27.60
2023-03-19T05:19:14.878Z,33.03
2023-03-19T05:21:41.769Z,27.35
2023-03-19T05:24:08.852Z,31.15
2023-03-19T05:26:37.982Z,36.17
2023-03-19T05:29:04.674Z,31.73
2023-03-19T05:31:31.398Z,39.10
2023-03-19T05:34:00.825Z,37.75
2023-03-19T05:36:31.974Z,40.08
2023-03-19T05:38:58.690Z,36.00
2023-03-19T05:41:25.437Z,37.72
2023-03-19T05:43:52.178Z,36.20
2023-03-19T05:46:21.541Z,33.50
2023-03-19T05:48:48.295Z,32.42
2023-03-19T05:51:15.094Z,32.08
2023-03-19T05:53:41.774Z,31.70
2023-03-19T05:56:10.562Z,34.60
2023-03-19T05:58:37.536Z,31.25
2023-03-19T06:01:04.536Z,31.38
2023-03-19T06:03:31.330Z,29.77
2023-03-19T06:06:00.196Z,33.22
2023-03-19T06:08:32.616Z,28.23
2023-03-19T06:10:59.362Z,27.05
2023-03-19T06:13:28.973Z,32.42
2023-03-19T06:15:55.752Z,30.23
2023-03-19T06:18:24.645Z,31.05
2023-03-19T06:20:51.344Z,32.67
2023-03-19T06:23:18.529Z,28.80
2023-03-19T06:25:45.253Z,35.00
2023-03-19T06:28:14.362Z,32.80
2023-03-19T06:30:41.071Z,30.55
2023-03-19T06:33:07.757Z,30.52
2023-03-19T06:35:34.673Z,29.30
2023-03-19T06:38:01.405Z,29.95
2023-03-19T06:40:28.167Z,30.92
2023-03-19T06:42:54.843Z,27.48
2023-03-19T06:45:21.565Z,30.00
2023-03-19T06:47:48.261Z,38.70
2023-03-19T06:50:15.840Z,31.08
2023-03-19T06:52:42.947Z,29.10
2023-03-19T06:55:10.284Z,25.90
2023-03-19T06:57:37.270Z,28.85
2023-03-19T07:00:05.815Z,27.63
2023-03-19T07:02:32.968Z,26.55
2023-03-19T07:04:59.652Z,28.98
2023-03-19T07:07:26.688Z,26.38
2023-03-19T07:09:53.657Z,34.75
2023-03-19T07:12:20.419Z,33.35
2023-03-19T07:14:47.074Z,25.52
2023-03-19T07:17:13.845Z,31.27
2023-03-19T07:19:40.478Z,32.13
2023-03-19T07:22:07.368Z,31.65
2023-03-19T07:24:34.077Z,27.55
2023-03-19T07:27:00.843Z,28.10
2023-03-19T07:29:27.497Z,31.85
2023-03-19T07:31:54.303Z,33.25
2023-03-19T07:34:21.046Z,32.97
2023-03-19T07:36:47.718Z,28.08
2023-03-19T07:39:14.542Z,29.67
2023-03-19T07:41:41.308Z,30.88
2023-03-19T07:44:07.985Z,48.38
2023-03-19T07:46:35.008Z,31.13
2023-03-19T07:49:01.949Z,31.35
2023-03-19T07:51:28.883Z,28.20
2023-03-19T07:53:55.718Z,29.27
2023-03-19T07:56:22.457Z,27.80
2023-03-19T07:58:49.145Z,30.13
2023-03-19T08:01:15.896Z,26.58
2023-03-19T08:03:42.581Z,28.70
2023-03-19T08:06:09.488Z,28.25
2023-03-19T08:08:36.682Z,30.23
2023-03-19T08:11:04.311Z,25.48
2023-03-19T08:13:31.383Z,27.23
2023-03-19T08:15:58.067Z,25.40
2023-03-19T08:18:24.952Z,25.13
2023-03-19T08:20:51.905Z,30.70
2023-03-19T08:23:19.215Z,30.83
2023-03-19T08:25:46.058Z,26.77
2023-03-19T08:28:12.865Z,23.48
2023-03-19T08:30:42.089Z,24.58
2023-03-19T08:33:09.757Z,26.77
2023-03-19T08:35:36.917Z,25.20
2023-03-19T08:38:04.026Z,20.85
2023-03-19T08:40:30.846Z,24.35
2023-03-19T08:42:58.961Z,22.70
2023-03-19T08:45:25.863Z,22.45
2023-03-19T08:47:52.702Z,26.25
2023-03-19T08:50:19.566Z,26.02
2023-03-19T08:52:46.376Z,23.95
2023-03-19T08:55:14.710Z,31.63
2023-03-19T08:57:42.194Z,29.45
2023-03-19T09:00:09.811Z,32.20
2023-03-19T09:02:36.702Z,27.88
2023-03-19T09:05:03.762Z,31.73
2023-03-19T09:07:30.558Z,29.05
2023-03-19T09:09:57.322Z,36.97
2023-03-19T09:12:24.130Z,36.28
2023-03-19T09:14:50.971Z,32.95
2023-03-19T09:17:18.035Z,35.78
2023-03-19T09:19:44.798Z,35.33
2023-03-19T09:22:12.664Z,29.88
2023-03-19T09:24:40.753Z,32.58
2023-03-19T09:27:08.183Z,28.17
2023-03-19T09:29:34.916Z,29.45
2023-03-19T09:32:01.721Z,30.63
2023-03-19T09:34:28.465Z,30.40
2023-03-19T09:36:55.243Z,28.83
2023-03-19T09:39:22.117Z,28.95
2023-03-19T09:41:58.382Z,32.28
2023-03-19T09:44:35.180Z,29.35
2023-03-19T09:47:31.541Z,24.20
2023-03-19T09:50:23.281Z,27.98
2023-03-19T09:53:03.461Z,27.05
2023-03-19T09:55:51.459Z,27.45
2023-03-19T09:58:22.496Z,27.35
2023-03-19T10:00:50.948Z,25.48
2023-03-19T10:03:39.406Z,29.33
2023-03-19T10:06:31.756Z,24.88
2023-03-19T10:09:16.474Z,25.92
2023-03-19T10:12:15.464Z,26.73
2023-03-19T10:14:58.641Z,22.27
2023-03-19T10:17:33.338Z,26.08
2023-03-19T10:22:38.442Z,22.63
2023-03-19T10:25:10.581Z,27.48
2023-03-19T10:27:38.157Z,26.77
2023-03-19T10:30:15.628Z,25.00
2023-03-19T10:32:53.106Z,24.67
2023-03-19T10:35:23.092Z,22.92
2023-03-19T10:37:51.285Z,25.60
2023-03-19T10:40:27.418Z,21.00
2023-03-19T10:43:20.930Z,21.60
2023-03-19T10:45:48.142Z,23.73
2023-03-19T10:48:18.855Z,20.83
2023-03-19T10:51:02.182Z,20.75
2023-03-19T10:53:35.488Z,19.33
2023-03-19T10:56:05.208Z,17.95
2023-03-19T10:58:36.764Z,22.98
2023-03-19T11:01:11.068Z,19.10
2023-03-19T11:03:38.957Z,19.58
2023-03-19T11:06:18.346Z,18.30
2023-03-19T11:08:59.416Z,16.73
2023-03-19T11:11:50.960Z,15.27
2023-03-19T11:14:19.558Z,17.65
2023-03-19T11:16:57.987Z,19.45
2023-03-19T11:19:27.613Z,17.05
2023-03-19T11:22:21.621Z,18.08
2023-03-19T11:24:50.645Z,15.27
2023-03-19T11:27:19.985Z,16.83
2023-03-19T11:29:46.892Z,17.15
2023-03-19T11:32:22.260Z,19.08
2023-03-19T11:34:59.080Z,13.73
2023-03-19T11:37:41.998Z,19.77
2023-03-19T11:40:38.236Z,15.23
2023-03-19T11:43:35.918Z,17.35
2023-03-19T11:46:36.882Z,15.18
2023-03-19T11:49:21.241Z,13.43
2023-03-19T11:52:08.632Z,15.98
2023-03-19T11:55:04.470Z,14.45
2023-03-19T11:58:09.424Z,13.93
2023-03-19T12:00:51.528Z,13.38
2023-03-19T12:03:21.694Z,16.42
2023-03-19T12:05:59.974Z,15.70
2023-03-19T12:08:35.317Z,14.65
2023-03-19T12:11:35.375Z,15.60
2023-03-19T12:14:29.923Z,15.00
2023-03-19T12:17:18.322Z,14.82
2023-03-19T12:19:54.438Z,14.35
2023-03-19T12:22:46.482Z,14.93
2023-03-19T12:25:35.261Z,17.85
2023-03-19T12:28:14.620Z,13.35
2023-03-19T12:30:49.687Z,15.50
2023-03-19T12:33:36.296Z,16.02
2023-03-19T12:36:09.346Z,15.73
2023-03-19T12:38:51.598Z,16.08
2023-03-19T12:41:25.619Z,21.73
2023-03-19T12:44:01.443Z,45.50
2023-03-19T12:46:31.493Z,18.50
2023-03-19T12:49:15.233Z,15.32
2023-03-19T12:51:46.547Z,18.80
2023-03-19T12:54:18.850Z,14.35
2023-03-19T12:57:07.129Z,15.57
2023-03-19T13:00:01.276Z,14.65
2023-03-19T13:02:44.063Z,15.20
2023-03-19T13:05:19.787Z,14.45
2023-03-19T13:10:31.115Z,13.57
2023-03-19T13:13:00.162Z,13.57
2023-03-19T13:15:33.615Z,17.13
2023-03-19T13:18:04.555Z,13.40
2023-03-19T13:21:19.133Z,16.02
2023-03-19T13:23:49.610Z,35.13
2023-03-19T13:26:17.521Z,19.42
2023-03-19T13:29:19.659Z,14.35
2023-03-19T13:31:46.947Z,16.15
2023-03-19T13:34:29.567Z,15.63
2023-03-19T13:37:00.998Z,15.90
2023-03-19T13:39:31.366Z,15.88
2023-03-19T13:42:07.352Z,13.75
2023-03-19T13:44:39.014Z,15.13
2023-03-19T13:47:27.797Z,14.50
2023-03-19T13:50:25.059Z,14.98
2023-03-19T13:52:55.962Z,14.15
2023-03-19T13:55:25.699Z,14.32
2023-03-19T13:58:06.324Z,13.10
2023-03-19T14:00:42.090Z,11.43
2023-03-19T14:03:24.718Z,13.05
2023-03-19T14:05:54.690Z,13.65
2023-03-19T14:08:24.947Z,13.30
2023-03-19T14:11:00.199Z,13.88
2023-03-19T14:13:48.165Z,16.73
2023-03-19T14:16:29.519Z,16.95
2023-03-19T14:19:11.553Z,14.50
2023-03-19T14:22:06.880Z,16.80
2023-03-19T14:24:59.210Z,13.63
2023-03-19T14:27:30.318Z,9.63
2023-03-19T14:30:01.927Z,11.70
2023-03-19T14:32:36.517Z,12.40
2023-03-19T14:35:06.181Z,13.20
2023-03-19T14:37:42.434Z,11.98
2023-03-19T14:40:09.375Z,15.90
2023-03-19T14:43:13.154Z,12.82
2023-03-19T14:46:02.281Z,9.35
2023-03-19T14:48:54.036Z,14.35
2023-03-19T14:51:50.600Z,11.07
2023-03-19T14:56:50.641Z,12.63
2023-03-19T14:59:17.711Z,12.00
2023-03-19T15:01:51.715Z,15.95
2023-03-19T15:04:21.771Z,10.20
2023-03-19T15:06:56.000Z,11.05
2023-03-19T15:09:31.575Z,12.38
2023-03-19T15:12:19.474Z,10.10
2023-03-19T15:15:30.945Z,12.48
2023-03-19T15:18:04.762Z,12.68
2023-03-19T15:20:46.011Z,11.05
2023-03-19T15:23:26.703Z,14.90
2023-03-19T15:26:02.849Z,10.13
2023-03-19T15:28:32.301Z,9.15
2023-03-19T15:31:14.449Z,13.05
2023-03-19T15:33:50.021Z,11.77
2023-03-19T15:36:28.131Z,12.40
2023-03-19T15:39:00.719Z,16.30
2023-03-19T15:41:30.597Z,15.90
2023-03-19T15:43:58.456Z,13.40
2023-03-19T15:46:30.813Z,12.88
2023-03-19T15:49:15.197Z,15.40
2023-03-19T15:51:44.390Z,12.07
2023-03-19T15:54:11.875Z,13.13
2023-03-19T15:56:39.298Z,13.27
2023-03-19T15:59:06.133Z,11.38
2023-03-19T16:01:33.858Z,13.75
2023-03-19T16:04:05.881Z,10.75
2023-03-19T16:06:37.778Z,13.38
2023-03-19T16:09:22.606Z,15.27
2023-03-19T16:11:50.362Z,10.88
2023-03-19T16:14:42.440Z,16.48
2023-03-19T16:17:17.712Z,13.40
2023-03-19T16:19:50.506Z,14.85
2023-03-19T16:22:32.254Z,14.30
2023-03-19T16:24:59.476Z,15.35
2023-03-19T16:27:37.240Z,17.98
2023-03-19T16:30:12.355Z,15.52
2023-03-19T16:32:39.337Z,13.98
2023-03-19T16:35:14.789Z,17.58
2023-03-19T16:37:47.247Z,21.88
2023-03-19T16:40:14.055Z,33.45
2023-03-19T16:42:41.683Z,18.25
2023-03-19T16:45:14.663Z,18.90
2023-03-19T16:47:42.379Z,15.00
2023-03-19T16:50:10.232Z,17.88
2023-03-19T16:52:39.374Z,19.50
2023-03-19T16:55:44.616Z,18.55
2023-03-19T16:58:20.133Z,17.67
2023-03-19T17:00:47.321Z,18.88
2023-03-19T17:03:17.020Z,18.00
2023-03-19T17:05:45.185Z,25.15
2023-03-19T17:08:12.450Z,20.25
2023-03-19T17:10:50.851Z,24.20
2023-03-19T17:13:29.652Z,21.35
2023-03-19T17:15:59.851Z,28.05
2023-03-19T17:18:30.083Z,19.80
2023-03-19T17:21:13.512Z,18.95
2023-03-19T17:23:40.874Z,24.63
2023-03-19T17:26:17.674Z,19.27
2023-03-19T17:28:45.374Z,21.17
2023-03-19T17:31:41.276Z,27.85
2023-03-19T17:34:12.395Z,29.33
2023-03-19T17:36:40.028Z,24.52
2023-03-19T17:39:07.497Z,24.40
2023-03-19T17:41:34.320Z,23.73
2023-03-19T17:44:01.287Z,29.60
2023-03-19T17:46:28.732Z,26.65
2023-03-19T17:48:55.840Z,26.58
2023-03-19T17:51:45.332Z,28.60
2023-03-19T17:54:13.435Z,29.80
2023-03-19T17:56:40.967Z,29.90
2023-03-19T17:59:08.340Z,28.40
2023-03-19T18:01:35.867Z,38.95
2023-03-19T18:04:04.578Z,33.58
2023-03-19T18:06:35.351Z,30.35
2023-03-19T18:09:02.710Z,32.20
2023-03-19T18:11:29.385Z,29.30
2023-03-19T18:13:56.141Z,33.50
2023-03-19T18:16:28.635Z,33.03
2023-03-19T18:18:59.031Z,35.15
2023-03-19T18:21:27.660Z,31.42
2023-03-19T18:23:55.260Z,30.60
2023-03-19T18:26:22.380Z,36.70
2023-03-19T18:28:49.086Z,33.90
2023-03-19T18:31:24.091Z,32.28
2023-03-19T18:34:03.470Z,35.05
2023-03-19T18:36:32.025Z,38.50
2023-03-19T18:38:59.094Z,34.97
2023-03-19T18:41:27.774Z,32.33
2023-03-19T18:43:54.949Z,36.40
2023-03-19T18:46:27.774Z,31.50
2023-03-19T18:49:14.056Z,36.00
2023-03-19T18:54:28.110Z,30.73
2023-03-19T18:56:55.336Z,27.08
2023-03-19T18:59:30.521Z,31.73
2023-03-19T19:02:13.113Z,32.47
2023-03-19T19:04:40.437Z,29.50
2023-03-19T19:07:12.230Z,29.48
2023-03-19T19:09:38.909Z,24.20
2023-03-19T19:12:06.089Z,25.65
2023-03-19T19:14:33.717Z,27.45
2023-03-19T19:17:00.526Z,27.90
2023-03-19T19:19:29.189Z,24.58
2023-03-19T19:21:55.992Z,29.30
2023-03-19T19:24:22.782Z,23.65
2023-03-19T19:26:51.439Z,24.13
2023-03-19T19:29:26.646Z,25.55
2023-03-19T19:31:54.100Z,25.63
2023-03-19T19:34:21.078Z,29.17
2023-03-19T19:36:47.813Z,23.13
2023-03-19T19:39:14.683Z,20.77
2023-03-19T19:41:41.474Z,24.15
2023-03-19T19:44:16.452Z,24.92
2023-03-19T19:46:45.576Z,22.80
2023-03-19T19:49:14.515Z,23.23
2023-03-19T19:51:41.280Z,24.60
2023-03-19T19:54:08.169Z,18.77
2023-03-19T19:56:34.916Z,17.23
2023-03-19T19:59:04.106Z,19.92
2023-03-19T20:01:30.908Z,16.33
2023-03-19T20:03:57.656Z,20.48
2023-03-19T20:06:24.740Z,18.80
2023-03-19T20:08:51.422Z,15.55
2023-03-19T20:11:23.612Z,17.50
2023-03-19T20:13:52.892Z,19.52
2023-03-19T20:16:20.962Z,18.73
2023-03-19T20:18:47.904Z,13.55
2023-03-19T20:21:15.412Z,17.38
2023-03-19T20:23:43.670Z,17.67
2023-03-19T20:26:14.786Z,18.30
2023-03-19T20:28:43.563Z,21.60
2023-03-19T20:31:34.782Z,26.42
2023-03-19T20:34:04.118Z,22.60
2023-03-19T20:36:31.350Z,23.05
2023-03-19T20:38:58.123Z,16.65
2023-03-19T20:41:26.264Z,18.90
2023-03-19T20:43:54.027Z,22.00
2023-03-19T20:46:22.222Z,18.65
2023-03-19T20:48:49.645Z,17.95
2023-03-19T20:51:22.195Z,21.08
2023-03-19T20:53:48.944Z,16.40
2023-03-19T20:56:17.699Z,17.38
2023-03-19T20:58:45.104Z,16.42
2023-03-19T21:01:12.302Z,15.68
2023-03-19T21:03:39.141Z,16.65
2023-03-19T21:06:14.992Z,16.25
2023-03-19T21:08:44.579Z,16.48
2023-03-19T21:11:23.244Z,15.70
2023-03-19T21:13:52.795Z,14.75
2023-03-19T21:16:25.805Z,15.85
2023-03-19T21:18:53.076Z,14.60
2023-03-19T21:21:34.241Z,16.45
2023-03-19T21:24:07.812Z,16.55
2023-03-19T21:26:37.654Z,14.70
2023-03-19T21:29:08.620Z,15.30
2023-03-19T21:31:35.316Z,17.70
2023-03-19T21:34:02.065Z,13.10
2023-03-19T21:36:28.798Z,13.18
2023-03-19T21:38:55.590Z,14.13
2023-03-19T21:41:25.942Z,13.27
2023-03-19T21:43:59.438Z,14.85
2023-03-19T21:46:29.413Z,12.68
2023-03-19T21:48:58.438Z,11.77
2023-03-19T21:51:27.086Z,12.32
2023-03-19T21:53:54.236Z,16.95
2023-03-19T21:56:26.353Z,14.82
2023-03-19T21:58:53.519Z,14.52
2023-03-19T22:01:23.457Z,15.90
2023-03-19T22:03:51.779Z,12.25
2023-03-19T22:06:18.531Z,14.38
2023-03-19T22:08:45.445Z,11.30
2023-03-19T22:11:25.984Z,10.05
2023-03-19T22:13:53.335Z,12.30
2023-03-19T22:16:25.394Z,8.32
2023-03-19T22:18:53.083Z,10.85
2023-03-19T22:21:22.746Z,10.90
2023-03-19T22:23:50.357Z,11.02
2023-03-19T22:26:29.794Z,10.02
2023-03-19T22:28:59.129Z,14.60
2023-03-19T22:31:26.264Z,12.95
2023-03-19T22:33:53.304Z,12.27
2023-03-19T22:36:20.139Z,10.45
2023-03-19T22:38:46.983Z,11.77
2023-03-19T22:41:18.425Z,10.85
2023-03-19T22:43:45.822Z,9.68
2023-03-19T22:46:16.088Z,13.10
2023-03-19T22:48:46.273Z,11.02
2023-03-19T22:51:16.976Z,12.32
2023-03-19T22:53:44.033Z,15.57
2023-03-19T22:56:11.860Z,10.88
2023-03-19T22:58:38.600Z,12.30
2023-03-19T23:01:20.776Z,13.93
2023-03-19T23:03:49.426Z,13.55
2023-03-19T23:06:29.609Z,16.05
2023-03-19T23:08:57.397Z,11.43
2023-03-19T23:11:24.130Z,10.13
2023-03-19T23:13:51.004Z,10.07
2023-03-19T23:16:21.982Z,14.65
2023-03-19T23:18:49.452Z,12.88
2023-03-19T23:21:18.027Z,10.82
2023-03-19T23:23:45.337Z,9.77
2023-03-19T23:26:31.138Z,10.55
2023-03-19T23:29:04.117Z,12.82
2023-03-19T23:31:30.928Z,10.00
2023-03-19T23:33:57.617Z,8.63
2023-03-19T23:36:24.335Z,9.25
2023-03-19T23:38:51.698Z,9.88
2023-03-19T23:41:24.977Z,10.50
2023-03-19T23:43:52.807Z,8.68
2023-03-19T23:46:20.746Z,7.45
2023-03-19T23:48:47.558Z,7.95
2023-03-19T23:51:15.561Z,6.80
2023-03-19T23:53:42.852Z,10.75
2023-03-19T23:56:20.845Z,6.90
2023-03-19T23:58:50.256Z,8.15
